Martin Miguel De Guemes International Airport
SASA : now visible

Airfield :











YOU CAN JOIN US ON...

 
LOGIN :

Register | Disclaimer

   EN    FR    IT 

 









Legend :    VFR   Marginal VFR   IFR   Intensive IFR   Very Intensive IFR
Visi :
Ceiling :
>= 8 km
>= 3000ft
5 to 8 km
1000 to 3000 ft
1500m to 5 km
500 to 1000 ft
800 to 1500m
200 to 500 ft
< 800m
< 200 ft
Symbols :   Thunderstorms  Fog  Heavy snow  Heavy precipitations  Wind > 20 kt






- Airport Elevation : 4088 ft
- IATA code : SLA


SASA - Martin Miguel De Guemes International

CURRENT METAR :
  • 300700Z 36004KT 9999 SCT010 FEW035CB BKN100 19/18 Q1018 RMK CB OBS TO E

EXPIRED METARs :
  • 300600Z 11007KT 8000 -TSRA SCT008 FEW035CB OVC050 20/19 Q1017 RMK CB OBS TO VER E
  • 300500Z 14009KT 6000 -TSRA SCT010 FEW035CB OVC050 20/19 Q1017 RMK CB OBS TO VERTICAL E

TAF TAF SASA
Valid from the 30 at 06:00 until the 01 at 06:00 UTC


300500Z 3006/0106 07010KT 4000 TSRASH BKN025 FEW040CB TX24/3018Z TN17/3010Z
BECMG 3009/3011 18015KT 5000 RA SCT010 OVC020 FEW040CB
SACF FIR / South America



MET'MAP, your aeronautical weather chart ! - Copyright ORBIFLY December 2007 - Disclaimer

ORBIFLY MET'MAP TEAM :

Programming & Development : Alexandra Zaïnal
Concept & original design : Baudouin d'Aumeries
Assistance for programming : Marc-Olivier Méhu
Technical & hardware support : Manuel Goepfert

Contact : metmap@orbifly.com




SOURCES & CREDITS :

   NOAA       Earth
Advisory